createdAt,value
2019-05-22T00:00:40.199Z,1002.98
2019-05-22T00:01:40.225Z,1003.04
2019-05-22T00:02:40.187Z,1003.02
2019-05-22T00:03:40.165Z,1003.01
2019-05-22T00:04:40.154Z,1003.05
2019-05-22T00:05:40.144Z,1003.09
2019-05-22T00:06:40.133Z,1003.09
2019-05-22T00:07:40.118Z,1003.13
2019-05-22T00:08:40.102Z,1003.11
2019-05-22T00:09:40.152Z,1003.10
2019-05-22T00:10:40.082Z,1003.14
2019-05-22T00:11:40.074Z,1003.16
2019-05-22T00:12:46.498Z,1003.19
2019-05-22T00:13:41.047Z,1003.22
2019-05-22T00:14:40.049Z,1003.19
2019-05-22T00:15:40.041Z,1003.20
2019-05-22T00:16:40.023Z,1003.19
2019-05-22T00:17:40.006Z,1003.17
2019-05-22T00:18:40.061Z,1003.18
2019-05-22T00:19:39.983Z,1003.19
2019-05-22T00:20:39.976Z,1003.15
2019-05-22T00:21:39.959Z,1003.16
2019-05-22T00:22:39.948Z,1003.20
2019-05-22T00:23:39.939Z,1003.17
2019-05-22T00:24:39.941Z,1003.18
2019-05-22T00:25:39.907Z,1003.18
2019-05-22T00:26:39.906Z,1003.22
2019-05-22T00:27:39.891Z,1003.28
2019-05-22T00:28:39.879Z,1003.20
2019-05-22T00:29:39.865Z,1003.18
2019-05-22T00:30:39.857Z,1003.22
2019-05-22T00:31:39.859Z,1003.23
2019-05-22T00:32:39.843Z,1003.24
2019-05-22T00:33:39.817Z,1003.25
2019-05-22T00:34:39.807Z,1003.29
2019-05-22T00:35:39.802Z,1003.25
2019-05-22T00:36:39.790Z,1003.30
2019-05-22T00:37:39.786Z,1003.27
2019-05-22T00:38:39.764Z,1003.28
2019-05-22T00:39:39.754Z,1003.26
2019-05-22T00:40:39.738Z,1003.38
2019-05-22T00:41:39.729Z,1003.30
2019-05-22T00:42:39.745Z,1003.34
2019-05-22T00:43:39.712Z,1003.40
2019-05-22T00:44:39.730Z,1003.38
2019-05-22T00:45:39.687Z,1003.42
2019-05-22T00:46:39.678Z,1003.47
2019-05-22T00:47:39.662Z,1003.45
2019-05-22T00:48:39.654Z,1003.53
2019-05-22T00:49:39.648Z,1003.52
2019-05-22T00:50:39.644Z,1003.42
2019-05-22T00:51:39.617Z,1003.51
2019-05-22T00:52:39.609Z,1003.46
2019-05-22T00:53:39.805Z,1003.49
2019-05-22T00:54:39.581Z,1003.58
2019-05-22T00:55:39.570Z,1003.50
2019-05-22T00:56:39.557Z,1003.50
2019-05-22T00:57:39.547Z,1003.59
2019-05-22T00:58:39.564Z,1003.64
2019-05-22T00:59:39.538Z,1003.65
2019-05-22T01:00:39.534Z,1003.58
2019-05-22T01:01:39.510Z,1003.55
2019-05-22T01:02:39.501Z,1003.63
2019-05-22T01:03:39.488Z,1003.58
2019-05-22T01:04:39.485Z,1003.54
2019-05-22T01:05:39.462Z,1003.65
2019-05-22T01:06:39.452Z,1003.65
2019-05-22T01:07:39.447Z,1003.68
2019-05-22T01:08:39.451Z,1003.68
2019-05-22T01:09:39.418Z,1003.66
2019-05-22T01:10:39.410Z,1003.71
2019-05-22T01:11:39.400Z,1003.74
2019-05-22T01:12:39.386Z,1003.68
2019-05-22T01:13:39.385Z,1003.72
2019-05-22T01:14:43.019Z,1003.67
2019-05-22T01:15:39.353Z,1003.69
2019-05-22T01:16:39.340Z,1003.68
2019-05-22T01:17:39.323Z,1003.71
2019-05-22T01:18:39.324Z,1003.67
2019-05-22T01:19:39.332Z,1003.63
2019-05-22T01:20:39.289Z,1003.66
2019-05-22T01:21:39.286Z,1003.61
2019-05-22T01:22:39.274Z,1003.65
2019-05-22T01:23:39.291Z,1003.65
2019-05-22T01:24:39.251Z,1003.71
2019-05-22T01:25:39.254Z,1003.71
2019-05-22T01:26:39.239Z,1003.79
2019-05-22T01:27:39.216Z,1003.74
2019-05-22T01:28:39.210Z,1003.78
2019-05-22T01:29:39.198Z,1003.75
2019-05-22T01:30:39.210Z,1003.79
2019-05-22T01:31:39.179Z,1003.77
2019-05-22T01:32:39.163Z,1003.82
2019-05-22T01:33:39.148Z,1003.79
2019-05-22T01:34:39.137Z,1003.83
2019-05-22T01:35:39.131Z,1003.84
2019-05-22T01:36:39.151Z,1003.82
2019-05-22T01:37:39.110Z,1003.85
2019-05-22T01:38:39.101Z,1003.78
2019-05-22T01:39:39.092Z,1003.85
2019-05-22T01:40:39.086Z,1003.83
2019-05-22T01:41:39.077Z,1003.87
2019-05-22T01:42:39.110Z,1003.79
2019-05-22T01:43:39.041Z,1003.81
2019-05-22T01:44:39.032Z,1003.79
2019-05-22T01:45:39.020Z,1003.82
2019-05-22T01:46:39.014Z,1003.75
2019-05-22T01:47:39.015Z,1003.75
2019-05-22T01:48:39.006Z,1003.79
2019-05-22T01:49:38.994Z,1003.77
2019-05-22T01:50:38.972Z,1003.80
2019-05-22T01:51:38.966Z,1003.78
2019-05-22T01:52:38.955Z,1003.74
2019-05-22T01:53:38.942Z,1003.80
2019-05-22T01:54:38.931Z,1003.78
2019-05-22T01:55:38.911Z,1003.80
2019-05-22T01:56:38.973Z,1003.79
2019-05-22T01:57:38.909Z,1003.77
2019-05-22T01:58:38.894Z,1003.72
2019-05-22T01:59:38.876Z,1003.77
2019-05-22T02:00:38.926Z,1003.74
2019-05-22T02:01:38.854Z,1003.75
2019-05-22T02:02:38.855Z,1003.67
2019-05-22T02:03:38.828Z,1003.76
2019-05-22T02:04:38.817Z,1003.76
2019-05-22T02:05:38.828Z,1003.76
2019-05-22T02:06:38.800Z,1003.75
2019-05-22T02:07:38.790Z,1003.77
2019-05-22T02:08:38.783Z,1003.72
2019-05-22T02:09:38.765Z,1003.78
2019-05-22T02:10:38.759Z,1003.70
2019-05-22T02:11:38.757Z,1003.75
2019-05-22T02:12:38.769Z,1003.78
2019-05-22T02:13:38.856Z,1003.70
2019-05-22T02:14:38.725Z,1003.81
2019-05-22T02:15:38.712Z,1003.78
2019-05-22T02:16:55.108Z,1003.84
2019-05-22T02:17:39.685Z,1003.79
2019-05-22T02:18:38.673Z,1003.81
2019-05-22T02:19:38.750Z,1003.83
2019-05-22T02:20:38.666Z,1003.84
2019-05-22T02:21:38.639Z,1003.85
2019-05-22T02:22:38.637Z,1003.85
2019-05-22T02:23:38.627Z,1003.89
2019-05-22T02:24:38.609Z,1003.85
2019-05-22T02:25:38.600Z,1003.82
2019-05-22T02:26:38.594Z,1003.84
2019-05-22T02:27:38.584Z,1003.86
2019-05-22T02:28:38.563Z,1003.93
2019-05-22T02:29:38.582Z,1003.93
2019-05-22T02:30:38.540Z,1003.85
2019-05-22T02:31:38.544Z,1003.83
2019-05-22T02:32:38.534Z,1003.91
2019-05-22T02:33:38.539Z,1003.90
2019-05-22T02:34:38.503Z,1003.88
2019-05-22T02:35:38.511Z,1003.89
2019-05-22T02:36:38.499Z,1003.86
2019-05-22T02:37:38.479Z,1003.88
2019-05-22T02:38:38.458Z,1003.91
2019-05-22T02:39:38.448Z,1003.96
2019-05-22T02:40:38.442Z,1003.96
2019-05-22T02:41:38.478Z,1003.94
2019-05-22T02:42:38.419Z,1003.87
2019-05-22T02:43:38.398Z,1003.93
2019-05-22T02:44:38.414Z,1003.98
2019-05-22T02:45:38.382Z,1003.95
2019-05-22T02:46:38.370Z,1003.94
2019-05-22T02:47:38.391Z,1003.97
2019-05-22T02:48:42.135Z,1003.96
2019-05-22T02:49:38.334Z,1003.97
2019-05-22T02:50:38.323Z,1003.92
2019-05-22T02:51:38.318Z,1003.99
2019-05-22T02:52:38.320Z,1004.06
2019-05-22T02:53:38.296Z,1004.03
2019-05-22T02:54:38.302Z,1004.06
2019-05-22T02:55:38.280Z,1004.11
2019-05-22T02:56:38.261Z,1004.14
2019-05-22T02:57:38.255Z,1004.12
2019-05-22T02:58:38.304Z,1004.21
2019-05-22T02:59:38.225Z,1004.19
2019-05-22T03:00:38.212Z,1004.18
2019-05-22T03:01:38.214Z,1004.21
2019-05-22T03:02:38.192Z,1004.18
2019-05-22T03:03:38.181Z,1004.22
2019-05-22T03:04:38.186Z,1004.20
2019-05-22T03:05:38.165Z,1004.20
2019-05-22T03:06:38.153Z,1004.17
2019-05-22T03:07:38.150Z,1004.23
2019-05-22T03:08:38.130Z,1004.22
2019-05-22T03:09:38.157Z,1004.24
2019-05-22T03:10:38.109Z,1004.18
2019-05-22T03:11:38.154Z,1004.28
2019-05-22T03:12:38.107Z,1004.20
2019-05-22T03:13:38.074Z,1004.24
2019-05-22T03:14:38.060Z,1004.20
2019-05-22T03:15:38.120Z,1004.24
2019-05-22T03:16:38.052Z,1004.29
2019-05-22T03:17:38.031Z,1004.25
2019-05-22T03:18:38.023Z,1004.27
2019-05-22T03:19:38.038Z,1004.23
2019-05-22T03:20:38.011Z,1004.27
2019-05-22T03:21:37.989Z,1004.30
2019-05-22T03:22:37.980Z,1004.27
2019-05-22T03:23:38.014Z,1004.29
2019-05-22T03:24:37.977Z,1004.33
2019-05-22T03:25:37.960Z,1004.22
2019-05-22T03:26:37.934Z,1004.30
2019-05-22T03:27:37.925Z,1004.30
2019-05-22T03:28:37.912Z,1004.30
2019-05-22T03:29:37.909Z,1004.33
2019-05-22T03:30:37.920Z,1004.31
2019-05-22T03:31:37.873Z,1004.31
2019-05-22T03:32:43.392Z,1004.36
2019-05-22T03:33:38.852Z,1004.37
2019-05-22T03:34:37.840Z,1004.37
2019-05-22T03:35:37.849Z,1004.30
2019-05-22T03:36:37.860Z,1004.32
2019-05-22T03:37:37.840Z,1004.38
2019-05-22T03:38:37.798Z,1004.37
2019-05-22T03:39:37.793Z,1004.41
2019-05-22T03:40:37.809Z,1004.38
2019-05-22T03:41:37.765Z,1004.33
2019-05-22T03:42:37.763Z,1004.37
2019-05-22T03:43:37.744Z,1004.36
2019-05-22T03:44:37.732Z,1004.40
2019-05-22T03:45:37.727Z,1004.43
2019-05-22T03:46:37.714Z,1004.41
2019-05-22T03:47:37.736Z,1004.43
2019-05-22T03:48:37.692Z,1004.45
2019-05-22T03:49:37.689Z,1004.44
2019-05-22T03:50:37.677Z,1004.43
2019-05-22T03:51:37.665Z,1004.49
2019-05-22T03:52:37.658Z,1004.46
2019-05-22T03:53:37.640Z,1004.50
2019-05-22T03:54:37.627Z,1004.51
2019-05-22T03:55:37.613Z,1004.52
2019-05-22T03:56:37.630Z,1004.53
2019-05-22T03:57:37.600Z,1004.55
2019-05-22T03:58:37.585Z,1004.48
2019-05-22T03:59:37.574Z,1004.55
2019-05-22T04:00:42.961Z,1004.50
2019-05-22T04:01:38.567Z,1004.51
2019-05-22T04:02:37.536Z,1004.56
2019-05-22T04:03:37.540Z,1004.54
2019-05-22T04:04:37.554Z,1004.53
2019-05-22T04:05:37.506Z,1004.60
2019-05-22T04:06:37.491Z,1004.60
2019-05-22T04:07:37.486Z,1004.64
2019-05-22T04:08:37.471Z,1004.60
2019-05-22T04:09:37.472Z,1004.57
2019-05-22T04:10:40.993Z,1004.57
2019-05-22T04:11:37.438Z,1004.63
2019-05-22T04:12:37.434Z,1004.63
2019-05-22T04:13:37.420Z,1004.62
2019-05-22T04:14:37.420Z,1004.66
2019-05-22T04:15:37.426Z,1004.68
2019-05-22T04:16:37.385Z,1004.63
2019-05-22T04:17:37.372Z,1004.67
2019-05-22T04:18:37.479Z,1004.65
2019-05-22T04:19:49.347Z,1004.61
2019-05-22T04:20:38.401Z,1004.66
2019-05-22T04:21:37.336Z,1004.66
2019-05-22T04:22:37.321Z,1004.63
2019-05-22T04:23:37.316Z,1004.66
2019-05-22T04:24:37.299Z,1004.65
2019-05-22T04:25:37.307Z,1004.64
2019-05-22T04:26:37.286Z,1004.70
2019-05-22T04:27:37.290Z,1004.76
2019-05-22T04:28:37.254Z,1004.76
2019-05-22T04:29:37.242Z,1004.79
2019-05-22T04:30:37.238Z,1004.77
2019-05-22T04:31:37.249Z,1004.79
2019-05-22T04:32:37.215Z,1004.84
2019-05-22T04:33:37.230Z,1004.79
2019-05-22T04:34:37.188Z,1004.77
2019-05-22T04:35:37.183Z,1004.80
2019-05-22T04:36:37.167Z,1004.80
2019-05-22T04:37:37.178Z,1004.81
2019-05-22T04:38:37.155Z,1004.77
2019-05-22T04:39:37.134Z,1004.75
2019-05-22T04:40:37.122Z,1004.82
2019-05-22T04:41:37.117Z,1004.75
2019-05-22T04:42:37.115Z,1004.82
2019-05-22T04:43:37.091Z,1004.86
2019-05-22T04:44:37.082Z,1004.86
2019-05-22T04:45:37.068Z,1004.85
2019-05-22T04:46:37.080Z,1004.92
2019-05-22T04:47:37.052Z,1004.86
2019-05-22T04:48:37.035Z,1004.94
2019-05-22T04:49:37.024Z,1004.90
2019-05-22T04:50:37.019Z,1004.95
2019-05-22T04:51:37.003Z,1004.92
2019-05-22T04:52:37.000Z,1004.92
2019-05-22T04:53:36.990Z,1004.87
2019-05-22T04:54:36.966Z,1004.91
2019-05-22T04:55:36.961Z,1004.93
2019-05-22T04:56:36.950Z,1004.89
2019-05-22T04:57:36.938Z,1004.93
2019-05-22T04:58:36.935Z,1004.88
2019-05-22T04:59:37.043Z,1004.95
2019-05-22T05:00:36.919Z,1004.92
2019-05-22T05:01:36.899Z,1004.94
2019-05-22T05:02:36.887Z,1004.94
2019-05-22T05:03:36.908Z,1004.96
2019-05-22T05:04:36.857Z,1004.96
2019-05-22T05:05:36.851Z,1004.99
2019-05-22T05:06:36.834Z,1005.04
2019-05-22T05:07:36.826Z,1004.98
2019-05-22T05:08:36.820Z,1004.97
2019-05-22T05:09:36.844Z,1004.97
2019-05-22T05:10:36.819Z,1005.04
2019-05-22T05:11:36.779Z,1004.98
2019-05-22T05:12:36.779Z,1005.07
2019-05-22T05:13:36.761Z,1005.06
2019-05-22T05:14:36.753Z,1005.04
2019-05-22T05:15:37.377Z,1005.08
2019-05-22T05:16:36.738Z,1005.12
2019-05-22T05:17:36.716Z,1005.15
2019-05-22T05:18:36.708Z,1005.14
2019-05-22T05:19:36.711Z,1005.13
2019-05-22T05:20:36.718Z,1005.13
2019-05-22T05:21:36.673Z,1005.09
2019-05-22T05:22:36.681Z,1005.10
2019-05-22T05:23:36.654Z,1005.18
2019-05-22T05:24:36.641Z,1005.15
2019-05-22T05:25:36.633Z,1005.13
2019-05-22T05:26:36.615Z,1005.19
2019-05-22T05:27:36.609Z,1005.12
2019-05-22T05:28:36.620Z,1005.10
2019-05-22T05:29:36.585Z,1005.10
2019-05-22T05:30:36.578Z,1005.13
2019-05-22T05:31:36.562Z,1005.14
2019-05-22T05:32:36.553Z,1005.12
2019-05-22T05:33:36.541Z,1005.13
2019-05-22T05:34:36.569Z,1005.10
2019-05-22T05:35:36.524Z,1005.14
2019-05-22T05:36:36.517Z,1005.10
2019-05-22T05:37:36.499Z,1005.12
2019-05-22T05:38:36.497Z,1005.22
2019-05-22T05:39:36.494Z,1005.21
2019-05-22T05:40:36.482Z,1005.13
2019-05-22T05:41:36.450Z,1005.12
2019-05-22T05:42:36.441Z,1005.08
2019-05-22T05:43:36.433Z,1005.08
2019-05-22T05:44:36.459Z,1005.10
2019-05-22T05:45:36.417Z,1005.09
2019-05-22T05:46:36.398Z,1005.09
2019-05-22T05:47:36.389Z,1005.02
2019-05-22T05:48:36.377Z,1005.08
2019-05-22T05:49:36.358Z,1005.12
2019-05-22T05:50:39.925Z,1005.07
2019-05-22T05:51:36.351Z,1005.17
2019-05-22T05:52:36.332Z,1005.12
2019-05-22T05:53:36.321Z,1005.07
2019-05-22T05:54:36.313Z,1005.15
2019-05-22T05:55:36.307Z,1005.07
2019-05-22T05:56:36.286Z,1005.04
2019-05-22T05:57:36.281Z,1005.06
2019-05-22T05:58:36.274Z,1005.03
2019-05-22T05:59:36.252Z,1005.11
2019-05-22T06:00:36.275Z,1005.06
2019-05-22T06:01:36.234Z,1005.06
2019-05-22T06:02:36.274Z,1005.13
2019-05-22T06:03:36.205Z,1005.13
2019-05-22T06:04:36.192Z,1005.13
2019-05-22T06:05:36.181Z,1005.12
2019-05-22T06:06:36.200Z,1005.17
2019-05-22T06:07:36.169Z,1005.14
2019-05-22T06:08:36.149Z,1005.19
2019-05-22T06:09:36.144Z,1005.14
2019-05-22T06:10:36.140Z,1005.20
2019-05-22T06:11:36.120Z,1005.21
2019-05-22T06:12:36.137Z,1005.20
2019-05-22T06:13:36.093Z,1005.30
2019-05-22T06:14:36.088Z,1005.20
2019-05-22T06:15:46.470Z,1005.25
2019-05-22T06:16:37.062Z,1005.29
2019-05-22T06:17:36.055Z,1005.39
2019-05-22T06:18:36.051Z,1005.34
2019-05-22T06:19:36.037Z,1005.40
2019-05-22T06:20:36.015Z,1005.39
2019-05-22T06:21:36.004Z,1005.43
2019-05-22T06:22:35.999Z,1005.42
2019-05-22T06:23:35.992Z,1005.40
2019-05-22T06:24:35.976Z,1005.50
2019-05-22T06:25:35.962Z,1005.53
2019-05-22T06:26:35.951Z,1005.54
2019-05-22T06:27:35.948Z,1005.50
2019-05-22T06:28:35.989Z,1005.49
2019-05-22T06:29:35.916Z,1005.52
2019-05-22T06:30:35.920Z,1005.59
2019-05-22T06:31:35.953Z,1005.57
2019-05-22T06:32:35.884Z,1005.53
2019-05-22T06:33:35.875Z,1005.55
2019-05-22T06:34:35.879Z,1005.49
2019-05-22T06:35:35.857Z,1005.47
2019-05-22T06:36:35.839Z,1005.54
2019-05-22T06:37:35.829Z,1005.53
2019-05-22T06:38:35.824Z,1005.58
2019-05-22T06:39:35.815Z,1005.58
2019-05-22T06:40:35.806Z,1005.52
2019-05-22T06:41:35.789Z,1005.54
2019-05-22T06:42:35.773Z,1005.52
2019-05-22T06:43:35.768Z,1005.57
2019-05-22T06:44:35.753Z,1005.54
2019-05-22T06:45:35.758Z,1005.59
2019-05-22T06:46:35.736Z,1005.62
2019-05-22T06:47:35.720Z,1005.58
2019-05-22T06:48:35.713Z,1005.63
2019-05-22T06:49:35.701Z,1005.62
2019-05-22T06:50:35.693Z,1005.65
2019-05-22T06:51:35.692Z,1005.67
2019-05-22T06:52:35.673Z,1005.66
2019-05-22T06:53:35.653Z,1005.71
2019-05-22T06:54:35.645Z,1005.72
2019-05-22T06:55:35.645Z,1005.71
2019-05-22T06:56:35.652Z,1005.79
2019-05-22T06:57:35.638Z,1005.82
2019-05-22T06:58:35.597Z,1005.83
2019-05-22T06:59:35.599Z,1005.83
2019-05-22T07:00:35.580Z,1005.83
2019-05-22T07:01:35.570Z,1005.86
2019-05-22T07:02:35.570Z,1005.86
2019-05-22T07:03:35.553Z,1005.88
2019-05-22T07:04:35.539Z,1005.85
2019-05-22T07:05:35.525Z,1005.85
2019-05-22T07:06:35.595Z,1005.83
2019-05-22T07:07:35.559Z,1005.85
2019-05-22T07:08:35.494Z,1005.93
2019-05-22T07:09:35.485Z,1005.86
2019-05-22T07:10:35.472Z,1005.94
2019-05-22T07:11:35.457Z,1005.93
2019-05-22T07:12:35.475Z,1005.87
2019-05-22T07:13:35.437Z,1005.86
2019-05-22T07:14:35.435Z,1005.82
2019-05-22T07:15:35.417Z,1005.85
2019-05-22T07:16:35.400Z,1005.88
2019-05-22T07:17:35.392Z,1005.84
2019-05-22T07:18:35.381Z,1005.89
2019-05-22T07:19:35.372Z,1005.88
2019-05-22T07:20:35.358Z,1005.92
2019-05-22T07:21:35.350Z,1005.95
2019-05-22T07:22:35.344Z,1005.93
2019-05-22T07:23:35.326Z,1005.97
2019-05-22T07:24:35.312Z,1005.94
2019-05-22T07:25:35.306Z,1005.94
2019-05-22T07:26:35.294Z,1005.95
2019-05-22T07:27:35.277Z,1005.98
2019-05-22T07:28:35.272Z,1005.91
2019-05-22T07:29:35.263Z,1005.98
2019-05-22T07:30:35.255Z,1006.01
2019-05-22T07:31:35.237Z,1006.00
2019-05-22T07:32:35.228Z,1006.01
2019-05-22T07:33:35.214Z,1006.01
2019-05-22T07:34:35.202Z,1006.03
2019-05-22T07:35:56.335Z,1005.97
2019-05-22T07:36:36.178Z,1006.04
2019-05-22T07:37:35.169Z,1006.07
2019-05-22T07:38:35.158Z,1006.00
2019-05-22T07:39:35.148Z,1006.02
2019-05-22T07:40:35.139Z,1005.98
2019-05-22T07:41:35.129Z,1006.08
2019-05-22T07:42:35.113Z,1006.02
2019-05-22T07:43:35.114Z,1006.10
2019-05-22T07:44:35.092Z,1006.13
2019-05-22T07:45:35.089Z,1006.10
2019-05-22T07:46:35.082Z,1006.14
2019-05-22T07:47:35.066Z,1006.20
2019-05-22T07:48:35.051Z,1006.20
2019-05-22T07:49:35.036Z,1006.19
2019-05-22T07:50:35.031Z,1006.17
2019-05-22T07:51:50.489Z,1006.26
2019-05-22T07:52:36.010Z,1006.20
2019-05-22T07:53:34.994Z,1006.25
2019-05-22T07:54:34.987Z,1006.26
2019-05-22T07:55:34.977Z,1006.27
2019-05-22T07:56:34.967Z,1006.32
2019-05-22T07:57:34.955Z,1006.38
2019-05-22T07:58:34.942Z,1006.36
2019-05-22T07:59:34.928Z,1006.34
2019-05-22T08:00:34.919Z,1006.34
2019-05-22T08:01:34.932Z,1006.32
2019-05-22T08:02:34.901Z,1006.25
2019-05-22T08:03:34.883Z,1006.25
2019-05-22T08:04:34.881Z,1006.29
2019-05-22T08:05:34.869Z,1006.30
2019-05-22T08:06:34.848Z,1006.36
2019-05-22T08:07:34.875Z,1006.34
2019-05-22T08:08:34.827Z,1006.32
2019-05-22T08:09:34.837Z,1006.35
2019-05-22T08:10:34.809Z,1006.34
2019-05-22T08:11:34.793Z,1006.28
2019-05-22T08:12:34.799Z,1006.35
2019-05-22T08:13:34.781Z,1006.38
2019-05-22T08:14:34.772Z,1006.37
2019-05-22T08:15:34.755Z,1006.33
2019-05-22T08:16:34.744Z,1006.42
2019-05-22T08:17:34.728Z,1006.34
2019-05-22T08:18:34.718Z,1006.42
2019-05-22T08:19:34.705Z,1006.44
2019-05-22T08:20:34.694Z,1006.43
2019-05-22T08:21:34.691Z,1006.44
2019-05-22T08:22:34.677Z,1006.45
2019-05-22T08:23:34.668Z,1006.44
2019-05-22T08:24:34.652Z,1006.45
2019-05-22T08:25:34.645Z,1006.43
2019-05-22T08:26:51.572Z,1006.44
2019-05-22T08:27:35.616Z,1006.38
2019-05-22T08:28:34.615Z,1006.45
2019-05-22T08:29:34.596Z,1006.46
2019-05-22T08:30:34.588Z,1006.38
2019-05-22T08:31:34.581Z,1006.39
2019-05-22T08:32:34.590Z,1006.36
2019-05-22T08:33:34.557Z,1006.36
2019-05-22T08:34:34.553Z,1006.46
2019-05-22T08:35:34.532Z,1006.41
2019-05-22T08:36:38.298Z,1006.46
2019-05-22T08:37:34.514Z,1006.48
2019-05-22T08:38:34.503Z,1006.44
2019-05-22T08:39:34.486Z,1006.52
2019-05-22T08:40:34.481Z,1006.45
2019-05-22T08:41:34.471Z,1006.50
2019-05-22T08:42:35.570Z,1006.46
2019-05-22T08:43:56.035Z,1006.52
2019-05-22T08:44:35.429Z,1006.52
2019-05-22T08:45:34.431Z,1006.54
2019-05-22T08:46:34.414Z,1006.54
2019-05-22T08:47:34.410Z,1006.55
2019-05-22T08:48:34.395Z,1006.60
2019-05-22T08:49:34.377Z,1006.63
2019-05-22T08:50:34.365Z,1006.50
2019-05-22T08:51:34.357Z,1006.61
2019-05-22T08:52:34.349Z,1006.62
2019-05-22T08:53:46.769Z,1006.60
2019-05-22T08:54:35.321Z,1006.58
2019-05-22T08:55:34.319Z,1006.63
2019-05-22T08:56:34.300Z,1006.62
2019-05-22T08:57:34.318Z,1006.65
2019-05-22T08:58:34.292Z,1006.70
2019-05-22T08:59:34.271Z,1006.77
2019-05-22T09:00:34.264Z,1006.64
2019-05-22T09:01:34.256Z,1006.80
2019-05-22T09:02:34.243Z,1006.76
2019-05-22T09:03:34.242Z,1006.78
2019-05-22T09:04:34.215Z,1006.78
2019-05-22T09:05:34.215Z,1006.78
2019-05-22T09:06:34.195Z,1006.85
2019-05-22T09:07:34.182Z,1006.80
2019-05-22T09:08:34.193Z,1006.89
2019-05-22T09:09:34.169Z,1006.83
2019-05-22T09:10:34.145Z,1006.89
2019-05-22T09:11:34.156Z,1006.84
2019-05-22T09:12:34.136Z,1006.95
2019-05-22T09:13:34.150Z,1006.90
2019-05-22T09:14:34.104Z,1006.90
2019-05-22T09:15:34.094Z,1006.96
2019-05-22T09:16:34.085Z,1007.02
2019-05-22T09:17:34.067Z,1006.97
2019-05-22T09:18:34.065Z,1006.92
2019-05-22T09:19:34.074Z,1006.96
2019-05-22T09:20:48.240Z,1006.97
2019-05-22T09:21:35.025Z,1007.04
2019-05-22T09:22:40.542Z,1007.01
2019-05-22T09:23:35.010Z,1007.04
2019-05-22T09:24:34.056Z,1007.01
2019-05-22T09:25:33.993Z,1007.00
2019-05-22T09:26:33.977Z,1007.05
2019-05-22T09:27:33.960Z,1007.02
2019-05-22T09:28:33.946Z,1007.03
2019-05-22T09:29:33.939Z,1007.05
2019-05-22T09:30:33.928Z,1007.04
2019-05-22T09:31:33.958Z,1007.01
2019-05-22T09:32:33.901Z,1007.11
2019-05-22T09:33:33.898Z,1007.02
2019-05-22T09:34:33.889Z,1007.12
2019-05-22T09:35:33.876Z,1007.08
2019-05-22T09:36:33.855Z,1007.12
2019-05-22T09:37:33.857Z,1006.98
2019-05-22T09:38:33.833Z,1006.98
2019-05-22T09:39:33.831Z,1007.08
2019-05-22T09:40:33.826Z,1007.02
2019-05-22T09:41:33.814Z,1007.05
2019-05-22T09:42:33.795Z,1006.99
2019-05-22T09:43:33.794Z,1006.99
2019-05-22T09:44:33.806Z,1007.09
2019-05-22T09:45:33.772Z,1007.10
2019-05-22T09:46:33.760Z,1007.03
2019-05-22T09:47:33.741Z,1007.03
2019-05-22T09:48:33.735Z,1006.97
2019-05-22T09:49:33.713Z,1007.07
2019-05-22T09:50:33.705Z,1007.07
2019-05-22T09:51:33.739Z,1007.11
2019-05-22T09:52:33.686Z,1007.14
2019-05-22T09:53:33.672Z,1007.07
2019-05-22T09:54:33.667Z,1007.13
2019-05-22T09:55:33.653Z,1007.12
2019-05-22T09:56:33.646Z,1007.19
2019-05-22T09:57:33.661Z,1007.09
2019-05-22T09:58:33.631Z,1007.09
2019-05-22T09:59:33.623Z,1007.09
2019-05-22T10:00:33.613Z,1007.14
2019-05-22T10:01:33.600Z,1007.14
2019-05-22T10:02:33.582Z,1007.21
2019-05-22T10:03:33.571Z,1007.26
2019-05-22T10:04:33.554Z,1007.24
2019-05-22T10:05:33.581Z,1007.18
2019-05-22T10:06:33.569Z,1007.19
2019-05-22T10:07:33.547Z,1007.23
2019-05-22T10:08:33.509Z,1007.25
2019-05-22T10:09:33.510Z,1007.27
2019-05-22T10:10:33.519Z,1007.25
2019-05-22T10:11:33.477Z,1007.31
2019-05-22T10:12:33.475Z,1007.31
2019-05-22T10:13:33.681Z,1007.24
2019-05-22T10:14:33.459Z,1007.33
2019-05-22T10:15:33.438Z,1007.30
2019-05-22T10:16:33.428Z,1007.34
2019-05-22T10:17:33.418Z,1007.27
2019-05-22T10:18:33.409Z,1007.26
2019-05-22T10:19:33.405Z,1007.27
2019-05-22T10:20:33.401Z,1007.30
2019-05-22T10:21:33.374Z,1007.34
2019-05-22T10:22:33.359Z,1007.30
2019-05-22T10:23:33.367Z,1007.42
2019-05-22T10:24:33.346Z,1007.38
2019-05-22T10:25:33.325Z,1007.28
2019-05-22T10:26:33.320Z,1007.35
2019-05-22T10:27:33.313Z,1007.34
2019-05-22T10:28:33.317Z,1007.31
2019-05-22T10:29:33.292Z,1007.27
2019-05-22T10:30:33.291Z,1007.28
2019-05-22T10:31:33.266Z,1007.30
2019-05-22T10:32:33.259Z,1007.32
2019-05-22T10:33:33.265Z,1007.34
2019-05-22T10:34:33.236Z,1007.33
2019-05-22T10:35:33.254Z,1007.32
2019-05-22T10:36:33.214Z,1007.29
2019-05-22T10:37:33.203Z,1007.33
2019-05-22T10:38:33.188Z,1007.27
2019-05-22T10:39:33.176Z,1007.29
2019-05-22T10:40:33.169Z,1007.29
2019-05-22T10:41:33.176Z,1007.29
2019-05-22T10:42:33.152Z,1007.29
2019-05-22T10:43:33.149Z,1007.28
2019-05-22T10:44:33.124Z,1007.38
2019-05-22T10:45:33.116Z,1007.36
2019-05-22T10:46:33.100Z,1007.38
2019-05-22T10:47:33.106Z,1007.47
2019-05-22T10:48:33.083Z,1007.46
2019-05-22T10:49:33.073Z,1007.37
2019-05-22T10:50:33.073Z,1007.41
2019-05-22T10:51:33.057Z,1007.51
2019-05-22T10:52:33.036Z,1007.53
2019-05-22T10:53:34.418Z,1007.46
2019-05-22T10:54:33.018Z,1007.55
2019-05-22T10:55:33.019Z,1007.56
2019-05-22T10:56:33.026Z,1007.58
2019-05-22T10:57:32.998Z,1007.59
2019-05-22T10:58:32.975Z,1007.57
2019-05-22T10:59:32.967Z,1007.58
2019-05-22T11:00:32.956Z,1007.65
2019-05-22T11:01:32.937Z,1007.59
2019-05-22T11:02:32.971Z,1007.66
2019-05-22T11:03:32.921Z,1007.60
2019-05-22T11:04:32.914Z,1007.67
2019-05-22T11:05:32.906Z,1007.71
2019-05-22T11:06:32.890Z,1007.69
2019-05-22T11:07:32.878Z,1007.71
2019-05-22T11:08:34.433Z,1007.64
2019-05-22T11:09:32.857Z,1007.75
2019-05-22T11:10:32.848Z,1007.70
2019-05-22T11:11:32.843Z,1007.75
2019-05-22T11:12:32.824Z,1007.80
2019-05-22T11:13:34.449Z,1007.71
2019-05-22T11:14:32.800Z,1007.70
2019-05-22T11:15:32.790Z,1007.72
2019-05-22T11:16:32.995Z,1007.71
2019-05-22T11:17:32.765Z,1007.71
2019-05-22T11:18:32.762Z,1007.69
2019-05-22T11:19:32.763Z,1007.75
2019-05-22T11:20:32.739Z,1007.79
2019-05-22T11:21:32.733Z,1007.72
2019-05-22T11:22:34.934Z,1007.81
2019-05-22T11:23:48.529Z,1007.78
2019-05-22T11:24:33.709Z,1007.80
2019-05-22T11:25:32.685Z,1007.82
2019-05-22T11:26:32.681Z,1007.87
2019-05-22T11:27:32.658Z,1007.79
2019-05-22T11:28:32.656Z,1007.83
2019-05-22T11:29:32.641Z,1007.75
2019-05-22T11:30:32.637Z,1007.80
2019-05-22T11:31:32.620Z,1007.86
2019-05-22T11:32:32.616Z,1007.80
2019-05-22T11:33:34.292Z,1007.75
2019-05-22T11:34:32.599Z,1007.81
2019-05-22T11:35:32.573Z,1007.76
2019-05-22T11:36:32.567Z,1007.80
2019-05-22T11:37:32.586Z,1007.86
2019-05-22T11:38:32.540Z,1007.82
2019-05-22T11:39:39.583Z,1007.85
2019-05-22T11:40:33.555Z,1007.87
2019-05-22T11:41:32.509Z,1007.85
2019-05-22T11:42:32.519Z,1007.90
2019-05-22T11:43:32.485Z,1007.84
2019-05-22T11:44:32.474Z,1007.80
2019-05-22T11:45:32.466Z,1007.88
2019-05-22T11:46:32.458Z,1007.78
2019-05-22T11:47:32.438Z,1007.89
2019-05-22T11:48:32.435Z,1007.87
2019-05-22T11:49:32.420Z,1007.85
2019-05-22T11:50:32.410Z,1007.79
2019-05-22T11:51:32.423Z,1007.87
2019-05-22T11:52:32.390Z,1007.86
2019-05-22T11:53:32.379Z,1007.95
2019-05-22T11:54:32.364Z,1007.87
2019-05-22T11:55:43.811Z,1007.87
2019-05-22T11:56:33.344Z,1007.91
2019-05-22T11:57:32.338Z,1007.88
2019-05-22T11:58:32.335Z,1007.87
2019-05-22T11:59:32.309Z,1007.89
2019-05-22T12:00:32.299Z,1007.93
2019-05-22T12:01:32.298Z,1007.89
2019-05-22T12:02:32.295Z,1007.95
2019-05-22T12:03:32.261Z,1007.93
2019-05-22T12:04:46.474Z,1007.97
2019-05-22T12:05:33.242Z,1007.87